sensor_id;sensor_type;location;lat;lon;timestamp;P1;durP1;ratioP1;P2;durP2;ratioP2
2570;SDS011;1295;51.130;6.732;2024-02-28T00:00:38;30.00;;;20.03;;
2570;SDS011;1295;51.130;6.732;2024-02-28T00:03:04;38.73;;;23.33;;
2570;SDS011;1295;51.130;6.732;2024-02-28T00:05:30;37.47;;;24.10;;
2570;SDS011;1295;51.130;6.732;2024-02-28T00:07:55;36.23;;;21.73;;
2570;SDS011;1295;51.130;6.732;2024-02-28T00:10:21;33.33;;;22.00;;
2570;SDS011;1295;51.130;6.732;2024-02-28T00:12:46;39.50;;;23.90;;
2570;SDS011;1295;51.130;6.732;2024-02-28T00:15:12;39.60;;;23.03;;
2570;SDS011;1295;51.130;6.732;2024-02-28T00:17:38;42.70;;;24.83;;
2570;SDS011;1295;51.130;6.732;2024-02-28T00:20:03;37.73;;;23.17;;
2570;SDS011;1295;51.130;6.732;2024-02-28T00:22:30;33.90;;;21.73;;
2570;SDS011;1295;51.130;6.732;2024-02-28T00:24:55;36.20;;;21.83;;
2570;SDS011;1295;51.130;6.732;2024-02-28T00:27:21;31.30;;;21.77;;
2570;SDS011;1295;51.130;6.732;2024-02-28T00:29:47;45.20;;;23.57;;
2570;SDS011;1295;51.130;6.732;2024-02-28T00:32:12;32.53;;;20.93;;
2570;SDS011;1295;51.130;6.732;2024-02-28T00:34:38;34.13;;;22.10;;
2570;SDS011;1295;51.130;6.732;2024-02-28T00:37:04;39.83;;;24.13;;
2570;SDS011;1295;51.130;6.732;2024-02-28T00:39:29;38.47;;;23.40;;
2570;SDS011;1295;51.130;6.732;2024-02-28T00:41:55;40.07;;;24.90;;
2570;SDS011;1295;51.130;6.732;2024-02-28T00:44:21;41.40;;;24.10;;
2570;SDS011;1295;51.130;6.732;2024-02-28T00:46:46;36.83;;;23.77;;
2570;SDS011;1295;51.130;6.732;2024-02-28T00:49:13;35.30;;;22.30;;
2570;SDS011;1295;51.130;6.732;2024-02-28T00:51:38;36.27;;;23.60;;
2570;SDS011;1295;51.130;6.732;2024-02-28T00:54:04;34.17;;;22.10;;
2570;SDS011;1295;51.130;6.732;2024-02-28T00:56:30;39.07;;;23.20;;
2570;SDS011;1295;51.130;6.732;2024-02-28T00:58:55;33.13;;;21.67;;
2570;SDS011;1295;51.130;6.732;2024-02-28T01:01:21;37.97;;;23.07;;
2570;SDS011;1295;51.130;6.732;2024-02-28T01:03:46;36.53;;;23.23;;
2570;SDS011;1295;51.130;6.732;2024-02-28T01:06:12;38.23;;;21.27;;
2570;SDS011;1295;51.130;6.732;2024-02-28T01:08:38;35.40;;;22.53;;
2570;SDS011;1295;51.130;6.732;2024-02-28T01:11:04;41.70;;;23.43;;
2570;SDS011;1295;51.130;6.732;2024-02-28T01:13:30;37.73;;;23.27;;
2570;SDS011;1295;51.130;6.732;2024-02-28T01:15:56;40.23;;;24.47;;
2570;SDS011;1295;51.130;6.732;2024-02-28T01:18:22;32.03;;;20.20;;
2570;SDS011;1295;51.130;6.732;2024-02-28T01:20:49;36.57;;;21.37;;
2570;SDS011;1295;51.130;6.732;2024-02-28T01:23:14;38.40;;;20.37;;
2570;SDS011;1295;51.130;6.732;2024-02-28T01:25:40;35.97;;;22.60;;
2570;SDS011;1295;51.130;6.732;2024-02-28T01:28:06;30.80;;;20.40;;
2570;SDS011;1295;51.130;6.732;2024-02-28T01:30:31;50.77;;;23.17;;
2570;SDS011;1295;51.130;6.732;2024-02-28T01:32:57;36.70;;;21.63;;
2570;SDS011;1295;51.130;6.732;2024-02-28T01:35:23;44.17;;;25.33;;
2570;SDS011;1295;51.130;6.732;2024-02-28T01:37:49;35.13;;;21.10;;
2570;SDS011;1295;51.130;6.732;2024-02-28T01:40:15;28.93;;;19.83;;
2570;SDS011;1295;51.130;6.732;2024-02-28T01:42:41;29.10;;;19.97;;
2570;SDS011;1295;51.130;6.732;2024-02-28T01:45:07;35.90;;;21.47;;
2570;SDS011;1295;51.130;6.732;2024-02-28T01:47:33;39.13;;;21.23;;
2570;SDS011;1295;51.130;6.732;2024-02-28T01:49:59;37.30;;;22.07;;
2570;SDS011;1295;51.130;6.732;2024-02-28T01:52:24;33.27;;;20.27;;
2570;SDS011;1295;51.130;6.732;2024-02-28T01:54:50;32.07;;;21.43;;
2570;SDS011;1295;51.130;6.732;2024-02-28T01:57:16;39.27;;;23.10;;
2570;SDS011;1295;51.130;6.732;2024-02-28T01:59:41;31.80;;;19.13;;
2570;SDS011;1295;51.130;6.732;2024-02-28T02:02:07;40.77;;;23.60;;
2570;SDS011;1295;51.130;6.732;2024-02-28T02:04:32;34.07;;;20.80;;
2570;SDS011;1295;51.130;6.732;2024-02-28T02:06:58;31.47;;;20.83;;
2570;SDS011;1295;51.130;6.732;2024-02-28T02:09:24;37.80;;;21.60;;
2570;SDS011;1295;51.130;6.732;2024-02-28T02:11:49;42.27;;;24.30;;
2570;SDS011;1295;51.130;6.732;2024-02-28T02:14:16;33.73;;;19.67;;
2570;SDS011;1295;51.130;6.732;2024-02-28T02:16:41;39.63;;;21.57;;
2570;SDS011;1295;51.130;6.732;2024-02-28T02:19:08;31.13;;;19.77;;
2570;SDS011;1295;51.130;6.732;2024-02-28T02:21:34;32.57;;;22.17;;
2570;SDS011;1295;51.130;6.732;2024-02-28T02:24:00;35.43;;;21.83;;
2570;SDS011;1295;51.130;6.732;2024-02-28T02:26:25;30.00;;;20.07;;
2570;SDS011;1295;51.130;6.732;2024-02-28T02:28:51;40.70;;;23.60;;
2570;SDS011;1295;51.130;6.732;2024-02-28T02:31:16;38.73;;;24.00;;
2570;SDS011;1295;51.130;6.732;2024-02-28T02:33:42;33.83;;;21.50;;
2570;SDS011;1295;51.130;6.732;2024-02-28T02:36:08;38.43;;;22.17;;
2570;SDS011;1295;51.130;6.732;2024-02-28T02:38:33;41.37;;;24.67;;
2570;SDS011;1295;51.130;6.732;2024-02-28T02:40:59;36.20;;;22.83;;
2570;SDS011;1295;51.130;6.732;2024-02-28T02:43:24;39.20;;;25.00;;
2570;SDS011;1295;51.130;6.732;2024-02-28T02:45:50;43.33;;;25.03;;
2570;SDS011;1295;51.130;6.732;2024-02-28T02:48:16;38.70;;;23.13;;
2570;SDS011;1295;51.130;6.732;2024-02-28T02:50:41;45.00;;;26.90;;
2570;SDS011;1295;51.130;6.732;2024-02-28T02:53:09;46.63;;;26.57;;
2570;SDS011;1295;51.130;6.732;2024-02-28T02:55:33;49.97;;;26.20;;
2570;SDS011;1295;51.130;6.732;2024-02-28T02:57:58;49.10;;;22.60;;
2570;SDS011;1295;51.130;6.732;2024-02-28T03:00:24;47.10;;;25.33;;
2570;SDS011;1295;51.130;6.732;2024-02-28T03:02:49;39.23;;;24.33;;
2570;SDS011;1295;51.130;6.732;2024-02-28T03:05:15;46.10;;;25.20;;
2570;SDS011;1295;51.130;6.732;2024-02-28T03:07:41;41.53;;;23.20;;
2570;SDS011;1295;51.130;6.732;2024-02-28T03:10:06;48.60;;;26.30;;
2570;SDS011;1295;51.130;6.732;2024-02-28T03:12:32;43.33;;;27.63;;
2570;SDS011;1295;51.130;6.732;2024-02-28T03:14:58;53.20;;;29.20;;
2570;SDS011;1295;51.130;6.732;2024-02-28T03:17:24;49.00;;;27.33;;
2570;SDS011;1295;51.130;6.732;2024-02-28T03:19:50;47.90;;;26.33;;
2570;SDS011;1295;51.130;6.732;2024-02-28T03:22:16;49.87;;;28.03;;
2570;SDS011;1295;51.130;6.732;2024-02-28T03:24:41;45.30;;;26.80;;
2570;SDS011;1295;51.130;6.732;2024-02-28T03:27:07;58.47;;;30.77;;
2570;SDS011;1295;51.130;6.732;2024-02-28T03:29:33;42.37;;;24.27;;
2570;SDS011;1295;51.130;6.732;2024-02-28T03:31:58;48.90;;;26.57;;
2570;SDS011;1295;51.130;6.732;2024-02-28T03:34:24;49.37;;;28.07;;
2570;SDS011;1295;51.130;6.732;2024-02-28T03:36:50;52.33;;;29.87;;
2570;SDS011;1295;51.130;6.732;2024-02-28T03:39:16;47.50;;;27.40;;
2570;SDS011;1295;51.130;6.732;2024-02-28T03:41:42;48.10;;;27.70;;
2570;SDS011;1295;51.130;6.732;2024-02-28T03:44:07;45.20;;;25.60;;
2570;SDS011;1295;51.130;6.732;2024-02-28T03:46:33;54.57;;;28.73;;
2570;SDS011;1295;51.130;6.732;2024-02-28T03:48:58;49.83;;;25.97;;
2570;SDS011;1295;51.130;6.732;2024-02-28T03:51:25;52.00;;;28.70;;
2570;SDS011;1295;51.130;6.732;2024-02-28T03:53:50;55.17;;;30.13;;
2570;SDS011;1295;51.130;6.732;2024-02-28T03:58:56;59.47;;;29.17;;
2570;SDS011;1295;51.130;6.732;2024-02-28T04:01:21;59.20;;;29.77;;
2570;SDS011;1295;51.130;6.732;2024-02-28T04:03:48;62.13;;;32.57;;
2570;SDS011;1295;51.130;6.732;2024-02-28T04:06:13;53.67;;;28.90;;
2570;SDS011;1295;51.130;6.732;2024-02-28T04:08:40;56.17;;;30.90;;
2570;SDS011;1295;51.130;6.732;2024-02-28T04:11:05;54.77;;;30.37;;
2570;SDS011;1295;51.130;6.732;2024-02-28T04:13:31;56.10;;;29.10;;
2570;SDS011;1295;51.130;6.732;2024-02-28T04:15:56;46.83;;;28.63;;
2570;SDS011;1295;51.130;6.732;2024-02-28T04:18:23;73.77;;;32.33;;
2570;SDS011;1295;51.130;6.732;2024-02-28T04:20:48;63.27;;;32.90;;
2570;SDS011;1295;51.130;6.732;2024-02-28T04:23:14;61.47;;;31.83;;
2570;SDS011;1295;51.130;6.732;2024-02-28T04:25:40;60.33;;;30.60;;
2570;SDS011;1295;51.130;6.732;2024-02-28T04:28:06;55.17;;;31.10;;
2570;SDS011;1295;51.130;6.732;2024-02-28T04:30:31;66.20;;;32.80;;
2570;SDS011;1295;51.130;6.732;2024-02-28T04:32:57;57.77;;;31.20;;
2570;SDS011;1295;51.130;6.732;2024-02-28T04:35:22;61.37;;;33.50;;
2570;SDS011;1295;51.130;6.732;2024-02-28T04:37:48;51.70;;;27.13;;
2570;SDS011;1295;51.130;6.732;2024-02-28T04:40:14;54.67;;;28.50;;
2570;SDS011;1295;51.130;6.732;2024-02-28T04:42:39;58.70;;;31.63;;
2570;SDS011;1295;51.130;6.732;2024-02-28T04:45:05;60.73;;;31.10;;
2570;SDS011;1295;51.130;6.732;2024-02-28T04:47:31;58.80;;;32.60;;
2570;SDS011;1295;51.130;6.732;2024-02-28T04:49:57;61.33;;;31.90;;
2570;SDS011;1295;51.130;6.732;2024-02-28T04:52:23;51.13;;;29.17;;
2570;SDS011;1295;51.130;6.732;2024-02-28T04:54:48;62.80;;;34.73;;
2570;SDS011;1295;51.130;6.732;2024-02-28T04:57:14;62.33;;;31.80;;
2570;SDS011;1295;51.130;6.732;2024-02-28T04:59:41;66.73;;;34.57;;
2570;SDS011;1295;51.130;6.732;2024-02-28T05:02:05;63.20;;;31.33;;
2570;SDS011;1295;51.130;6.732;2024-02-28T05:04:31;59.60;;;32.57;;
2570;SDS011;1295;51.130;6.732;2024-02-28T05:06:56;68.50;;;33.07;;
2570;SDS011;1295;51.130;6.732;2024-02-28T05:09:22;77.47;;;35.20;;
2570;SDS011;1295;51.130;6.732;2024-02-28T05:11:48;61.20;;;33.53;;
2570;SDS011;1295;51.130;6.732;2024-02-28T05:14:13;70.23;;;36.57;;
2570;SDS011;1295;51.130;6.732;2024-02-28T05:16:40;62.83;;;32.33;;
2570;SDS011;1295;51.130;6.732;2024-02-28T05:19:05;62.23;;;34.27;;
2570;SDS011;1295;51.130;6.732;2024-02-28T05:21:31;69.70;;;33.93;;
2570;SDS011;1295;51.130;6.732;2024-02-28T05:23:56;79.60;;;35.00;;
2570;SDS011;1295;51.130;6.732;2024-02-28T05:26:22;57.67;;;31.13;;
2570;SDS011;1295;51.130;6.732;2024-02-28T05:28:48;64.80;;;34.30;;
2570;SDS011;1295;51.130;6.732;2024-02-28T05:33:50;71.63;;;33.30;;
2570;SDS011;1295;51.130;6.732;2024-02-28T05:36:14;70.70;;;33.47;;
2570;SDS011;1295;51.130;6.732;2024-02-28T05:38:40;71.07;;;36.23;;
2570;SDS011;1295;51.130;6.732;2024-02-28T05:41:06;72.37;;;34.60;;
2570;SDS011;1295;51.130;6.732;2024-02-28T05:43:42;76.60;;;34.17;;
2570;SDS011;1295;51.130;6.732;2024-02-28T05:46:08;69.87;;;32.30;;
2570;SDS011;1295;51.130;6.732;2024-02-28T05:48:34;81.53;;;37.27;;
2570;SDS011;1295;51.130;6.732;2024-02-28T05:51:00;82.93;;;35.83;;
2570;SDS011;1295;51.130;6.732;2024-02-28T05:53:26;81.30;;;36.87;;
2570;SDS011;1295;51.130;6.732;2024-02-28T05:55:51;98.97;;;37.87;;
2570;SDS011;1295;51.130;6.732;2024-02-28T05:58:17;81.83;;;33.63;;
2570;SDS011;1295;51.130;6.732;2024-02-28T06:00:42;87.33;;;36.30;;
2570;SDS011;1295;51.130;6.732;2024-02-28T06:03:09;87.73;;;39.10;;
2570;SDS011;1295;51.130;6.732;2024-02-28T06:05:34;89.33;;;36.60;;
2570;SDS011;1295;51.130;6.732;2024-02-28T06:08:00;76.67;;;36.47;;
2570;SDS011;1295;51.130;6.732;2024-02-28T06:10:26;94.87;;;42.57;;
2570;SDS011;1295;51.130;6.732;2024-02-28T06:12:52;99.37;;;40.30;;
2570;SDS011;1295;51.130;6.732;2024-02-28T06:15:18;89.83;;;40.03;;
2570;SDS011;1295;51.130;6.732;2024-02-28T06:17:45;86.30;;;40.10;;
2570;SDS011;1295;51.130;6.732;2024-02-28T06:20:10;74.70;;;33.67;;
2570;SDS011;1295;51.130;6.732;2024-02-28T06:22:36;100.37;;;40.00;;
2570;SDS011;1295;51.130;6.732;2024-02-28T06:25:02;70.20;;;37.90;;
2570;SDS011;1295;51.130;6.732;2024-02-28T06:27:27;93.40;;;37.53;;
2570;SDS011;1295;51.130;6.732;2024-02-28T06:29:53;73.53;;;35.70;;
2570;SDS011;1295;51.130;6.732;2024-02-28T06:32:19;90.27;;;36.47;;
2570;SDS011;1295;51.130;6.732;2024-02-28T06:34:44;81.30;;;33.00;;
2570;SDS011;1295;51.130;6.732;2024-02-28T06:37:10;74.90;;;33.00;;
2570;SDS011;1295;51.130;6.732;2024-02-28T06:39:35;80.63;;;33.50;;
2570;SDS011;1295;51.130;6.732;2024-02-28T06:42:01;82.13;;;37.63;;
2570;SDS011;1295;51.130;6.732;2024-02-28T06:44:27;81.70;;;38.80;;
2570;SDS011;1295;51.130;6.732;2024-02-28T06:46:52;85.03;;;36.07;;
2570;SDS011;1295;51.130;6.732;2024-02-28T06:49:18;82.37;;;35.60;;
2570;SDS011;1295;51.130;6.732;2024-02-28T06:51:44;77.73;;;34.57;;
2570;SDS011;1295;51.130;6.732;2024-02-28T06:54:09;89.60;;;37.97;;
2570;SDS011;1295;51.130;6.732;2024-02-28T06:56:42;79.07;;;31.20;;
2570;SDS011;1295;51.130;6.732;2024-02-28T06:59:08;89.80;;;39.13;;
2570;SDS011;1295;51.130;6.732;2024-02-28T07:01:34;103.50;;;41.83;;
2570;SDS011;1295;51.130;6.732;2024-02-28T07:04:01;87.37;;;37.13;;
2570;SDS011;1295;51.130;6.732;2024-02-28T07:06:26;76.57;;;34.87;;
2570;SDS011;1295;51.130;6.732;2024-02-28T07:08:52;100.83;;;40.43;;
2570;SDS011;1295;51.130;6.732;2024-02-28T07:11:18;89.03;;;38.50;;
2570;SDS011;1295;51.130;6.732;2024-02-28T07:13:43;87.80;;;36.67;;
2570;SDS011;1295;51.130;6.732;2024-02-28T07:16:09;89.50;;;33.73;;
2570;SDS011;1295;51.130;6.732;2024-02-28T07:18:35;84.80;;;36.77;;
2570;SDS011;1295;51.130;6.732;2024-02-28T07:21:00;97.07;;;40.57;;
2570;SDS011;1295;51.130;6.732;2024-02-28T07:23:26;70.50;;;32.70;;
2570;SDS011;1295;51.130;6.732;2024-02-28T07:25:51;87.40;;;36.07;;
2570;SDS011;1295;51.130;6.732;2024-02-28T07:28:17;81.40;;;34.90;;
2570;SDS011;1295;51.130;6.732;2024-02-28T07:30:43;77.20;;;33.20;;
2570;SDS011;1295;51.130;6.732;2024-02-28T07:33:08;72.83;;;31.87;;
2570;SDS011;1295;51.130;6.732;2024-02-28T07:35:43;77.00;;;32.60;;
2570;SDS011;1295;51.130;6.732;2024-02-28T07:37:59;89.50;;;38.37;;
2570;SDS011;1295;51.130;6.732;2024-02-28T07:40:25;96.47;;;37.50;;
2570;SDS011;1295;51.130;6.732;2024-02-28T07:42:51;90.70;;;38.80;;
2570;SDS011;1295;51.130;6.732;2024-02-28T07:45:16;87.47;;;38.50;;
2570;SDS011;1295;51.130;6.732;2024-02-28T07:47:43;105.77;;;39.77;;
2570;SDS011;1295;51.130;6.732;2024-02-28T07:50:08;79.40;;;34.30;;
2570;SDS011;1295;51.130;6.732;2024-02-28T07:52:34;95.90;;;41.07;;
2570;SDS011;1295;51.130;6.732;2024-02-28T07:55:00;92.60;;;41.90;;
2570;SDS011;1295;51.130;6.732;2024-02-28T07:57:25;84.43;;;35.50;;
2570;SDS011;1295;51.130;6.732;2024-02-28T07:59:51;81.30;;;35.53;;
2570;SDS011;1295;51.130;6.732;2024-02-28T08:02:17;88.43;;;38.90;;
2570;SDS011;1295;51.130;6.732;2024-02-28T08:04:42;93.57;;;37.63;;
2570;SDS011;1295;51.130;6.732;2024-02-28T08:07:16;88.03;;;34.57;;
2570;SDS011;1295;51.130;6.732;2024-02-28T08:09:42;91.23;;;38.17;;
2570;SDS011;1295;51.130;6.732;2024-02-28T08:12:08;82.17;;;34.67;;
2570;SDS011;1295;51.130;6.732;2024-02-28T08:14:33;66.17;;;31.93;;
2570;SDS011;1295;51.130;6.732;2024-02-28T08:16:59;82.57;;;33.83;;
2570;SDS011;1295;51.130;6.732;2024-02-28T08:19:24;97.73;;;34.37;;
2570;SDS011;1295;51.130;6.732;2024-02-28T08:21:50;91.87;;;38.27;;
2570;SDS011;1295;51.130;6.732;2024-02-28T08:24:16;81.60;;;34.90;;
2570;SDS011;1295;51.130;6.732;2024-02-28T08:26:42;84.60;;;37.50;;
2570;SDS011;1295;51.130;6.732;2024-02-28T08:29:08;73.30;;;34.23;;
2570;SDS011;1295;51.130;6.732;2024-02-28T08:31:38;77.03;;;32.93;;
2570;SDS011;1295;51.130;6.732;2024-02-28T08:34:00;80.40;;;36.17;;
2570;SDS011;1295;51.130;6.732;2024-02-28T08:36:25;86.53;;;32.73;;
2570;SDS011;1295;51.130;6.732;2024-02-28T08:38:52;81.23;;;35.87;;
2570;SDS011;1295;51.130;6.732;2024-02-28T08:41:17;83.10;;;35.17;;
2570;SDS011;1295;51.130;6.732;2024-02-28T08:43:43;83.20;;;35.90;;
2570;SDS011;1295;51.130;6.732;2024-02-28T08:46:09;96.53;;;37.90;;
2570;SDS011;1295;51.130;6.732;2024-02-28T08:48:34;74.20;;;34.40;;
2570;SDS011;1295;51.130;6.732;2024-02-28T08:51:00;105.20;;;42.10;;
2570;SDS011;1295;51.130;6.732;2024-02-28T08:53:25;104.93;;;41.27;;
2570;SDS011;1295;51.130;6.732;2024-02-28T08:55:51;98.10;;;41.40;;
2570;SDS011;1295;51.130;6.732;2024-02-28T08:58:24;87.07;;;35.27;;
2570;SDS011;1295;51.130;6.732;2024-02-28T09:00:49;104.10;;;36.73;;
2570;SDS011;1295;51.130;6.732;2024-02-28T09:03:15;95.67;;;40.20;;
2570;SDS011;1295;51.130;6.732;2024-02-28T09:05:40;80.20;;;34.20;;
2570;SDS011;1295;51.130;6.732;2024-02-28T09:08:06;85.93;;;36.13;;
2570;SDS011;1295;51.130;6.732;2024-02-28T09:10:48;98.73;;;37.60;;
2570;SDS011;1295;51.130;6.732;2024-02-28T09:13:13;103.63;;;42.87;;
2570;SDS011;1295;51.130;6.732;2024-02-28T09:15:39;85.80;;;36.40;;
2570;SDS011;1295;51.130;6.732;2024-02-28T09:18:05;83.13;;;36.40;;
2570;SDS011;1295;51.130;6.732;2024-02-28T09:20:31;89.47;;;38.03;;
2570;SDS011;1295;51.130;6.732;2024-02-28T09:22:57;85.40;;;40.57;;
2570;SDS011;1295;51.130;6.732;2024-02-28T09:25:24;92.17;;;38.20;;
2570;SDS011;1295;51.130;6.732;2024-02-28T09:27:56;91.67;;;40.60;;
2570;SDS011;1295;51.130;6.732;2024-02-28T09:30:22;89.57;;;39.23;;
2570;SDS011;1295;51.130;6.732;2024-02-28T09:32:47;78.87;;;36.10;;
2570;SDS011;1295;51.130;6.732;2024-02-28T09:35:13;76.63;;;36.00;;
2570;SDS011;1295;51.130;6.732;2024-02-28T09:37:40;78.50;;;37.37;;
2570;SDS011;1295;51.130;6.732;2024-02-28T09:40:08;59.90;;;31.43;;
2570;SDS011;1295;51.130;6.732;2024-02-28T09:42:32;82.50;;;37.90;;
2570;SDS011;1295;51.130;6.732;2024-02-28T09:45:00;81.33;;;33.93;;
2570;SDS011;1295;51.130;6.732;2024-02-28T09:47:25;68.00;;;32.83;;
2570;SDS011;1295;51.130;6.732;2024-02-28T09:49:51;73.47;;;33.83;;
2570;SDS011;1295;51.130;6.732;2024-02-28T09:52:17;61.77;;;33.57;;
2570;SDS011;1295;51.130;6.732;2024-02-28T09:54:42;67.90;;;33.87;;
2570;SDS011;1295;51.130;6.732;2024-02-28T09:57:09;68.37;;;31.53;;
2570;SDS011;1295;51.130;6.732;2024-02-28T09:59:33;61.87;;;27.50;;
2570;SDS011;1295;51.130;6.732;2024-02-28T10:01:59;69.23;;;35.73;;
2570;SDS011;1295;51.130;6.732;2024-02-28T10:04:26;63.53;;;33.13;;
2570;SDS011;1295;51.130;6.732;2024-02-28T10:06:51;70.63;;;31.30;;
2570;SDS011;1295;51.130;6.732;2024-02-28T10:09:17;66.73;;;32.00;;
2570;SDS011;1295;51.130;6.732;2024-02-28T10:11:43;62.67;;;32.07;;
2570;SDS011;1295;51.130;6.732;2024-02-28T10:14:09;75.93;;;35.73;;
2570;SDS011;1295;51.130;6.732;2024-02-28T10:16:34;66.27;;;33.07;;
2570;SDS011;1295;51.130;6.732;2024-02-28T10:19:00;63.53;;;30.90;;
2570;SDS011;1295;51.130;6.732;2024-02-28T10:21:26;74.53;;;31.50;;
2570;SDS011;1295;51.130;6.732;2024-02-28T10:23:51;67.60;;;34.80;;
2570;SDS011;1295;51.130;6.732;2024-02-28T10:26:18;63.53;;;30.90;;
2570;SDS011;1295;51.130;6.732;2024-02-28T10:28:44;60.47;;;27.47;;
2570;SDS011;1295;51.130;6.732;2024-02-28T10:31:09;59.07;;;29.47;;
2570;SDS011;1295;51.130;6.732;2024-02-28T10:33:36;56.07;;;30.57;;
2570;SDS011;1295;51.130;6.732;2024-02-28T10:36:03;72.50;;;31.00;;
2570;SDS011;1295;51.130;6.732;2024-02-28T10:38:30;63.13;;;30.70;;
2570;SDS011;1295;51.130;6.732;2024-02-28T10:40:55;57.77;;;30.47;;
2570;SDS011;1295;51.130;6.732;2024-02-28T10:43:21;57.23;;;28.10;;
2570;SDS011;1295;51.130;6.732;2024-02-28T10:45:47;56.53;;;29.80;;
2570;SDS011;1295;51.130;6.732;2024-02-28T10:48:14;59.13;;;29.50;;
2570;SDS011;1295;51.130;6.732;2024-02-28T10:50:39;51.70;;;26.00;;
2570;SDS011;1295;51.130;6.732;2024-02-28T10:53:05;52.77;;;27.87;;
2570;SDS011;1295;51.130;6.732;2024-02-28T10:55:32;50.30;;;26.63;;
2570;SDS011;1295;51.130;6.732;2024-02-28T10:58:03;48.70;;;24.60;;
2570;SDS011;1295;51.130;6.732;2024-02-28T11:00:29;44.70;;;23.90;;
2570;SDS011;1295;51.130;6.732;2024-02-28T11:02:55;43.33;;;21.87;;
2570;SDS011;1295;51.130;6.732;2024-02-28T11:05:20;52.37;;;24.57;;
2570;SDS011;1295;51.130;6.732;2024-02-28T11:07:46;50.80;;;25.07;;
2570;SDS011;1295;51.130;6.732;2024-02-28T11:10:12;53.10;;;28.07;;
2570;SDS011;1295;51.130;6.732;2024-02-28T11:12:37;43.50;;;24.17;;
2570;SDS011;1295;51.130;6.732;2024-02-28T11:15:03;54.37;;;29.17;;
2570;SDS011;1295;51.130;6.732;2024-02-28T11:17:31;54.00;;;28.77;;
2570;SDS011;1295;51.130;6.732;2024-02-28T11:19:57;53.23;;;28.20;;
2570;SDS011;1295;51.130;6.732;2024-02-28T11:22:23;49.90;;;26.60;;
2570;SDS011;1295;51.130;6.732;2024-02-28T11:24:53;56.93;;;28.73;;
2570;SDS011;1295;51.130;6.732;2024-02-28T11:27:15;50.17;;;24.90;;
2570;SDS011;1295;51.130;6.732;2024-02-28T11:29:40;41.60;;;23.67;;
2570;SDS011;1295;51.130;6.732;2024-02-28T11:32:07;47.73;;;23.77;;
2570;SDS011;1295;51.130;6.732;2024-02-28T11:34:33;38.90;;;21.10;;
2570;SDS011;1295;51.130;6.732;2024-02-28T11:36:59;35.47;;;20.80;;
2570;SDS011;1295;51.130;6.732;2024-02-28T11:39:24;51.47;;;27.50;;
2570;SDS011;1295;51.130;6.732;2024-02-28T11:41:50;46.20;;;20.87;;
2570;SDS011;1295;51.130;6.732;2024-02-28T11:44:16;41.37;;;24.43;;
2570;SDS011;1295;51.130;6.732;2024-02-28T11:46:43;44.57;;;24.60;;
2570;SDS011;1295;51.130;6.732;2024-02-28T11:49:08;43.30;;;23.97;;
2570;SDS011;1295;51.130;6.732;2024-02-28T11:51:33;48.33;;;22.60;;
2570;SDS011;1295;51.130;6.732;2024-02-28T11:54:01;48.70;;;22.93;;
2570;SDS011;1295;51.130;6.732;2024-02-28T11:56:24;48.33;;;26.33;;
2570;SDS011;1295;51.130;6.732;2024-02-28T11:58:51;41.17;;;21.97;;
2570;SDS011;1295;51.130;6.732;2024-02-28T12:01:16;41.73;;;24.70;;
2570;SDS011;1295;51.130;6.732;2024-02-28T12:03:44;41.30;;;21.60;;
2570;SDS011;1295;51.130;6.732;2024-02-28T12:06:07;36.93;;;20.10;;
2570;SDS011;1295;51.130;6.732;2024-02-28T12:08:33;36.37;;;21.30;;
2570;SDS011;1295;51.130;6.732;2024-02-28T12:11:05;37.97;;;20.63;;
2570;SDS011;1295;51.130;6.732;2024-02-28T12:13:24;52.93;;;24.23;;
2570;SDS011;1295;51.130;6.732;2024-02-28T12:15:49;40.30;;;23.43;;
2570;SDS011;1295;51.130;6.732;2024-02-28T12:18:15;31.27;;;17.17;;
2570;SDS011;1295;51.130;6.732;2024-02-28T12:20:41;40.50;;;18.53;;
2570;SDS011;1295;51.130;6.732;2024-02-28T12:23:07;43.23;;;21.63;;
2570;SDS011;1295;51.130;6.732;2024-02-28T12:25:43;39.37;;;21.30;;
2570;SDS011;1295;51.130;6.732;2024-02-28T12:28:09;43.57;;;22.10;;
2570;SDS011;1295;51.130;6.732;2024-02-28T12:30:41;43.80;;;23.13;;
2570;SDS011;1295;51.130;6.732;2024-02-28T12:33:01;39.47;;;19.20;;
2570;SDS011;1295;51.130;6.732;2024-02-28T12:35:27;32.53;;;19.93;;
2570;SDS011;1295;51.130;6.732;2024-02-28T12:37:53;29.97;;;17.97;;
2570;SDS011;1295;51.130;6.732;2024-02-28T12:40:19;31.03;;;16.27;;
2570;SDS011;1295;51.130;6.732;2024-02-28T12:42:44;37.83;;;21.53;;
2570;SDS011;1295;51.130;6.732;2024-02-28T12:45:10;42.83;;;24.40;;
2570;SDS011;1295;51.130;6.732;2024-02-28T12:47:35;36.77;;;20.77;;
2570;SDS011;1295;51.130;6.732;2024-02-28T12:50:01;49.40;;;25.87;;
2570;SDS011;1295;51.130;6.732;2024-02-28T12:52:27;49.30;;;23.60;;
2570;SDS011;1295;51.130;6.732;2024-02-28T12:54:53;35.33;;;18.87;;
2570;SDS011;1295;51.130;6.732;2024-02-28T12:57:19;51.83;;;26.80;;
2570;SDS011;1295;51.130;6.732;2024-02-28T12:59:44;38.03;;;19.63;;
2570;SDS011;1295;51.130;6.732;2024-02-28T13:02:10;39.97;;;24.50;;
2570;SDS011;1295;51.130;6.732;2024-02-28T13:04:36;31.63;;;19.00;;
2570;SDS011;1295;51.130;6.732;2024-02-28T13:07:01;35.27;;;20.60;;
2570;SDS011;1295;51.130;6.732;2024-02-28T13:09:28;32.30;;;19.70;;
2570;SDS011;1295;51.130;6.732;2024-02-28T13:11:54;37.87;;;21.27;;
2570;SDS011;1295;51.130;6.732;2024-02-28T13:14:20;31.17;;;16.17;;
2570;SDS011;1295;51.130;6.732;2024-02-28T13:16:46;37.50;;;19.97;;
2570;SDS011;1295;51.130;6.732;2024-02-28T13:19:12;30.93;;;16.37;;
2570;SDS011;1295;51.130;6.732;2024-02-28T13:21:37;30.77;;;16.90;;
2570;SDS011;1295;51.130;6.732;2024-02-28T13:24:03;32.87;;;18.00;;
2570;SDS011;1295;51.130;6.732;2024-02-28T13:26:30;32.60;;;18.53;;
2570;SDS011;1295;51.130;6.732;2024-02-28T13:28:55;33.83;;;16.97;;
2570;SDS011;1295;51.130;6.732;2024-02-28T13:31:22;28.30;;;16.83;;
2570;SDS011;1295;51.130;6.732;2024-02-28T13:33:47;30.80;;;17.60;;
2570;SDS011;1295;51.130;6.732;2024-02-28T13:36:14;30.00;;;18.90;;
2570;SDS011;1295;51.130;6.732;2024-02-28T13:38:40;33.10;;;17.40;;
2570;SDS011;1295;51.130;6.732;2024-02-28T13:41:05;32.63;;;17.00;;
2570;SDS011;1295;51.130;6.732;2024-02-28T13:43:31;23.97;;;14.97;;
2570;SDS011;1295;51.130;6.732;2024-02-28T13:45:56;27.73;;;14.57;;
2570;SDS011;1295;51.130;6.732;2024-02-28T13:48:22;29.87;;;15.83;;
2570;SDS011;1295;51.130;6.732;2024-02-28T13:50:48;34.53;;;18.07;;
2570;SDS011;1295;51.130;6.732;2024-02-28T13:53:14;31.87;;;16.17;;
2570;SDS011;1295;51.130;6.732;2024-02-28T13:55:39;30.23;;;19.50;;
2570;SDS011;1295;51.130;6.732;2024-02-28T13:58:05;27.57;;;16.27;;
2570;SDS011;1295;51.130;6.732;2024-02-28T14:00:32;27.30;;;15.80;;
2570;SDS011;1295;51.130;6.732;2024-02-28T14:02:57;24.10;;;15.70;;
2570;SDS011;1295;51.130;6.732;2024-02-28T14:05:23;26.67;;;12.70;;
2570;SDS011;1295;51.130;6.732;2024-02-28T14:07:49;27.43;;;14.77;;
2570;SDS011;1295;51.130;6.732;2024-02-28T14:10:16;23.93;;;15.57;;
2570;SDS011;1295;51.130;6.732;2024-02-28T14:12:42;25.97;;;14.07;;
2570;SDS011;1295;51.130;6.732;2024-02-28T14:15:08;32.03;;;18.17;;
2570;SDS011;1295;51.130;6.732;2024-02-28T14:17:34;31.53;;;16.60;;
2570;SDS011;1295;51.130;6.732;2024-02-28T14:19:59;31.90;;;18.30;;
2570;SDS011;1295;51.130;6.732;2024-02-28T14:22:25;26.13;;;14.37;;
2570;SDS011;1295;51.130;6.732;2024-02-28T14:24:51;27.20;;;16.70;;
2570;SDS011;1295;51.130;6.732;2024-02-28T14:27:17;30.43;;;14.60;;
2570;SDS011;1295;51.130;6.732;2024-02-28T14:29:42;28.87;;;15.60;;
2570;SDS011;1295;51.130;6.732;2024-02-28T14:32:08;24.80;;;14.83;;
2570;SDS011;1295;51.130;6.732;2024-02-28T14:34:34;31.50;;;15.60;;
2570;SDS011;1295;51.130;6.732;2024-02-28T14:37:00;30.43;;;16.90;;
2570;SDS011;1295;51.130;6.732;2024-02-28T14:39:26;24.13;;;15.23;;
2570;SDS011;1295;51.130;6.732;2024-02-28T14:41:52;24.60;;;14.60;;
2570;SDS011;1295;51.130;6.732;2024-02-28T14:44:18;25.77;;;16.00;;